Time;durP1;ratioP1;P1;durP2;ratioP2;P2;SDS_P1;SDS_P2;PMS_P1;PMS_P2;Temp;Humidity;BMP_temperature;BMP_pressure;BME280_temperature;BME280_humidity;BME280_pressure;Samples;Min_cycle;Max_cycle;Signal;HPM_P1;HPM_P2
2023/09/10 00:00:52;;;;;;;;;;;24.50;50.60;;;;;;5054037;28;19932;-61
2023/09/10 00:03:19;;;;;;;;;;;24.50;50.60;;;;;;5054312;28;19986;-61
2023/09/10 00:05:46;;;;;;;;;;;24.60;50.70;;;;;;5053647;28;20015;-60
2023/09/10 00:08:13;;;;;;;;;;;24.60;50.70;;;;;;5053517;28;20507;-63
2023/09/10 00:10:41;;;;;;;;;;;24.50;50.60;;;;;;5054114;28;20356;-61
2023/09/10 00:13:10;;;;;;;;;;;24.50;50.60;;;;;;5054251;28;19964;-61
2023/09/10 00:15:37;;;;;;;;;;;24.50;50.60;;;;;;5053969;28;19948;-61
2023/09/10 00:18:04;;;;;;;;;;;24.60;50.70;;;;;;5053001;28;19925;-61
2023/09/10 00:20:31;;;;;;;;;;;24.50;50.70;;;;;;5054008;28;19924;-61
2023/09/10 00:22:58;;;;;;;;;;;24.50;50.70;;;;;;5054120;28;19983;-61
2023/09/10 00:25:25;;;;;;;;;;;24.50;50.80;;;;;;5053784;28;19925;-61
2023/09/10 00:27:52;;;;;;;;;;;24.50;50.70;;;;;;5053917;28;20327;-61
2023/09/10 00:30:19;;;;;;;;;;;24.50;50.70;;;;;;5053595;28;20286;-61
2023/09/10 00:32:46;;;;;;;;;;;24.50;50.80;;;;;;5053633;28;19971;-61
2023/09/10 00:35:13;;;;;;;;;;;24.50;50.80;;;;;;5053327;28;19925;-61
2023/09/10 00:37:40;;;;;;;;;;;24.50;50.80;;;;;;5051824;28;19925;-61
2023/09/10 00:40:08;;;;;;;;;;;24.50;50.80;;;;;;5052546;28;20357;-62
2023/09/10 00:42:35;;;;;;;;;;;24.50;50.80;;;;;;5052550;28;19955;-61
2023/09/10 00:45:07;;;;;;;;;;;24.50;50.80;;;;;;5052433;28;19964;-61
2023/09/10 00:47:35;;;;;;;;;;;24.50;50.80;;;;;;5052770;28;19925;-60
2023/09/10 00:50:03;;;;;;;;;;;24.50;50.80;;;;;;5052370;28;20027;-61
2023/09/10 00:52:30;;;;;;;;;;;24.50;50.90;;;;;;5052537;28;19924;-61
2023/09/10 00:54:57;;;;;;;;;;;24.50;51.10;;;;;;5052320;28;20308;-61
2023/09/10 00:57:24;;;;;;;;;;;24.50;50.90;;;;;;5052832;28;19960;-61
2023/09/10 00:59:51;;;;;;;;;;;24.50;50.90;;;;;;5052788;28;19968;-61
2023/09/10 01:02:20;;;;;;;;;;;24.50;51.00;;;;;;5052510;28;20035;-61
2023/09/10 01:04:47;;;;;;;;;;;24.50;51.10;;;;;;5052856;28;19925;-61
2023/09/10 01:07:14;;;;;;;;;;;24.50;50.90;;;;;;5052341;28;19925;-61
2023/09/10 01:09:41;;;;;;;;;;;24.50;50.90;;;;;;5052146;28;19925;-61
2023/09/10 01:12:16;;;;;;;;;;;24.50;50.90;;;;;;5052189;28;20012;-61
2023/09/10 01:14:57;;;;;;;;;;;24.50;50.90;;;;;;5052295;28;20007;-61
2023/09/10 01:17:38;;;;;;;;;;;24.50;50.90;;;;;;5052377;28;20062;-63
2023/09/10 01:20:19;;;;;;;;;;;24.50;50.80;;;;;;5055671;28;19984;-61
2023/09/10 01:22:53;;;;;;;;;;;24.50;50.80;;;;;;5054556;28;19978;-61
2023/09/10 01:25:21;;;;;;;;;;;24.50;50.80;;;;;;5055748;28;20414;-61
2023/09/10 01:27:48;;;;;;;;;;;24.50;50.80;;;;;;5055898;28;19964;-61
2023/09/10 01:30:15;;;;;;;;;;;24.50;50.80;;;;;;5055895;28;20042;-60
2023/09/10 01:32:48;;;;;;;;;;;24.50;50.80;;;;;;5055717;28;19925;-61
2023/09/10 01:35:20;;;;;;;;;;;24.50;50.80;;;;;;4986251;28;1984907;-61
2023/09/10 01:37:53;;;;;;;;;;;24.50;50.90;;;;;;5057096;28;19971;-61
2023/09/10 01:40:24;;;;;;;;;;;24.50;50.90;;;;;;5056598;28;19932;-61
2023/09/10 01:42:51;;;;;;;;;;;24.50;50.90;;;;;;5055394;28;19968;-61
2023/09/10 01:45:18;;;;;;;;;;;24.50;50.90;;;;;;5056836;28;19983;-60
2023/09/10 01:47:46;;;;;;;;;;;24.50;50.90;;;;;;5057229;28;20384;-61
2023/09/10 01:50:14;;;;;;;;;;;24.50;50.90;;;;;;5056489;28;19951;-61
2023/09/10 01:52:41;;;;;;;;;;;24.50;51.00;;;;;;5056697;28;19960;-61
2023/09/10 01:55:09;;;;;;;;;;;24.50;51.00;;;;;;5056540;28;19925;-61
2023/09/10 01:57:35;;;;;;;;;;;24.50;51.00;;;;;;5056805;28;19925;-61
2023/09/10 02:00:05;;;;;;;;;;;24.40;51.00;;;;;;5056737;28;19994;-61
2023/09/10 02:02:32;;;;;;;;;;;24.40;51.50;;;;;;5056600;28;19971;-62
2023/09/10 02:04:59;;;;;;;;;;;24.40;51.00;;;;;;5056363;28;20027;-61
2023/09/10 02:07:26;;;;;;;;;;;24.40;51.00;;;;;;5056903;28;20339;-61
2023/09/10 02:09:53;;;;;;;;;;;24.40;51.00;;;;;;5055530;28;19925;-61
2023/09/10 02:12:20;;;;;;;;;;;24.40;51.00;;;;;;5055797;28;19978;-61
2023/09/10 02:14:48;;;;;;;;;;;24.40;51.00;;;;;;5056179;28;19925;-61
2023/09/10 02:17:15;;;;;;;;;;;24.40;51.00;;;;;;5055259;28;19924;-61
2023/09/10 02:19:42;;;;;;;;;;;24.40;51.00;;;;;;5056180;28;20292;-61
2023/09/10 02:22:09;;;;;;;;;;;24.40;51.00;;;;;;5056361;28;19931;-61
2023/09/10 02:24:36;;;;;;;;;;;24.40;51.00;;;;;;5055980;28;20457;-62
2023/09/10 02:27:03;;;;;;;;;;;24.40;51.00;;;;;;5056050;28;19948;-61
2023/09/10 02:29:30;;;;;;;;;;;24.40;51.00;;;;;;5055493;28;19928;-61
2023/09/10 02:31:57;;;;;;;;;;;24.40;51.00;;;;;;5055813;28;20020;-60
2023/09/10 02:34:24;;;;;;;;;;;24.40;51.00;;;;;;5055652;28;19952;-61
2023/09/10 02:36:51;;;;;;;;;;;24.40;51.00;;;;;;5055629;28;19970;-61
2023/09/10 02:39:18;;;;;;;;;;;24.40;50.90;;;;;;5055416;28;20019;-61
2023/09/10 02:41:45;;;;;;;;;;;24.40;50.90;;;;;;5055304;28;19932;-61
2023/09/10 02:44:12;;;;;;;;;;;24.40;50.90;;;;;;5055601;28;19972;-61
2023/09/10 02:46:39;;;;;;;;;;;24.40;50.90;;;;;;5055618;28;19929;-63
2023/09/10 02:49:06;;;;;;;;;;;24.40;50.90;;;;;;5055974;28;19925;-61
2023/09/10 02:51:33;;;;;;;;;;;24.50;50.90;;;;;;5055477;28;20352;-61
2023/09/10 02:54:00;;;;;;;;;;;24.40;50.90;;;;;;5055268;28;20397;-61
2023/09/10 02:56:27;;;;;;;;;;;24.40;50.90;;;;;;5055397;28;19979;-61
2023/09/10 02:58:53;;;;;;;;;;;24.40;50.90;;;;;;5054807;28;20019;-61
2023/09/10 03:01:21;;;;;;;;;;;24.40;50.90;;;;;;5055490;28;19931;-61
2023/09/10 03:03:49;;;;;;;;;;;24.40;51.00;;;;;;5055350;28;19925;-61
2023/09/10 03:06:16;;;;;;;;;;;24.40;51.50;;;;;;5055134;28;19925;-61
2023/09/10 03:08:44;;;;;;;;;;;24.40;51.00;;;;;;5055523;28;19925;-62
2023/09/10 03:11:11;;;;;;;;;;;24.40;51.00;;;;;;5055037;28;20011;-61
2023/09/10 03:13:38;;;;;;;;;;;24.40;51.00;;;;;;5055254;28;19925;-61
2023/09/10 03:16:05;;;;;;;;;;;24.30;51.00;;;;;;5055135;28;19924;-61
2023/09/10 03:18:32;;;;;;;;;;;24.40;51.10;;;;;;5054714;28;19975;-61
2023/09/10 03:21:01;;;;;;;;;;;24.40;51.10;;;;;;5054842;28;20369;-61
2023/09/10 03:23:28;;;;;;;;;;;24.40;51.10;;;;;;5055026;28;20377;-61
2023/09/10 03:25:55;;;;;;;;;;;24.40;51.10;;;;;;5055281;28;19926;-61
2023/09/10 03:28:22;;;;;;;;;;;24.40;51.10;;;;;;5054913;28;19972;-61
2023/09/10 03:30:49;;;;;;;;;;;24.40;51.10;;;;;;5054665;28;19925;-61
2023/09/10 03:33:15;;;;;;;;;;;24.40;51.10;;;;;;5054939;28;20003;-61
2023/09/10 03:35:43;;;;;;;;;;;24.40;51.10;;;;;;5054586;28;20016;-61
2023/09/10 03:38:10;;;;;;;;;;;24.30;51.00;;;;;;5054637;28;20446;-61
2023/09/10 03:40:37;;;;;;;;;;;24.30;51.00;;;;;;5053835;28;20028;-61
2023/09/10 03:43:03;;;;;;;;;;;24.40;51.10;;;;;;5054364;28;19947;-61
2023/09/10 03:45:30;;;;;;;;;;;24.30;51.00;;;;;;5054487;28;20400;-61
2023/09/10 03:47:57;;;;;;;;;;;24.40;51.10;;;;;;5054648;28;20039;-61
2023/09/10 03:50:24;;;;;;;;;;;24.40;51.10;;;;;;5054574;28;19929;-61
2023/09/10 03:52:52;;;;;;;;;;;24.40;51.00;;;;;;5053016;28;19925;-61
2023/09/10 03:55:19;;;;;;;;;;;24.40;51.00;;;;;;5054117;28;19925;-61
2023/09/10 03:57:46;;;;;;;;;;;24.40;51.00;;;;;;5054272;28;19960;-61
2023/09/10 04:00:13;;;;;;;;;;;24.40;51.00;;;;;;5069623;28;19979;-61
2023/09/10 04:02:40;;;;;;;;;;;24.40;51.00;;;;;;5053913;28;20428;-61
2023/09/10 04:05:09;;;;;;;;;;;24.40;50.90;;;;;;5054276;28;20389;-61
2023/09/10 04:07:36;;;;;;;;;;;24.30;50.90;;;;;;5054252;28;19925;-61
2023/09/10 04:10:03;;;;;;;;;;;24.40;50.90;;;;;;5054491;28;19925;-61
2023/09/10 04:12:30;;;;;;;;;;;24.40;51.00;;;;;;5053901;28;19943;-61
2023/09/10 04:14:57;;;;;;;;;;;24.40;51.00;;;;;;5054134;28;19955;-61
2023/09/10 04:17:28;;;;;;;;;;;24.40;51.00;;;;;;5054049;28;19925;-61
2023/09/10 04:19:55;;;;;;;;;;;24.40;51.00;;;;;;5054175;28;19925;-62
2023/09/10 04:22:23;;;;;;;;;;;24.30;50.90;;;;;;5053814;28;19967;-61
2023/09/10 04:24:50;;;;;;;;;;;24.40;51.00;;;;;;5053857;28;19928;-61
2023/09/10 04:27:17;;;;;;;;;;;24.30;51.00;;;;;;5053983;28;19952;-61
2023/09/10 04:29:44;;;;;;;;;;;24.40;51.00;;;;;;5053994;28;19924;-61
2023/09/10 04:32:11;;;;;;;;;;;24.30;50.90;;;;;;5053968;28;19933;-61
2023/09/10 04:34:38;;;;;;;;;;;24.40;51.00;;;;;;5053140;28;20019;-64
2023/09/10 04:37:05;;;;;;;;;;;24.30;50.90;;;;;;5053801;28;19975;-61
2023/09/10 04:39:32;;;;;;;;;;;24.30;51.00;;;;;;5053611;28;20356;-61
2023/09/10 04:41:59;;;;;;;;;;;24.20;50.90;;;;;;5052948;28;19960;-61
2023/09/10 04:44:26;;;;;;;;;;;24.10;51.00;;;;;;5053488;28;19925;-61
2023/09/10 04:46:54;;;;;;;;;;;23.90;51.30;;;;;;5053694;28;19967;-61
2023/09/10 04:49:22;;;;;;;;;;;23.70;51.80;;;;;;5053993;28;19924;-61
2023/09/10 04:51:49;;;;;;;;;;;23.40;52.10;;;;;;5053668;28;20373;-61
2023/09/10 04:54:16;;;;;;;;;;;23.10;51.20;;;;;;5053228;28;19929;-61
2023/09/10 04:56:43;;;;;;;;;;;22.80;50.10;;;;;;5053299;28;19932;-61
2023/09/10 04:59:10;;;;;;;;;;;22.50;49.70;;;;;;5052273;28;20395;-61
2023/09/10 05:01:37;;;;;;;;;;;22.30;48.80;;;;;;5053044;28;19979;-60
2023/09/10 05:04:04;;;;;;;;;;;21.90;48.60;;;;;;5053240;28;19925;-60
2023/09/10 05:06:31;;;;;;;;;;;21.60;49.50;;;;;;5053312;28;19937;-61
2023/09/10 05:08:58;;;;;;;;;;;21.30;49.70;;;;;;5053428;28;19986;-60
2023/09/10 05:11:25;;;;;;;;;;;21.00;50.20;;;;;;5053443;28;20380;-61
2023/09/10 05:13:52;;;;;;;;;;;20.80;51.40;;;;;;5053469;28;19925;-60
2023/09/10 05:16:19;;;;;;;;;;;20.60;50.40;;;;;;5052773;28;20281;-60
2023/09/10 05:18:47;;;;;;;;;;;20.40;50.10;;;;;;5053301;28;19972;-60
2023/09/10 05:21:14;;;;;;;;;;;20.20;51.20;;;;;;5053057;28;20392;-61
2023/09/10 05:23:43;;;;;;;;;;;20.10;49.60;;;;;;5053035;28;20015;-60
2023/09/10 05:26:10;;;;;;;;;;;19.90;51.50;;;;;;5053349;28;19948;-61
2023/09/10 05:28:37;;;;;;;;;;;19.80;52.50;;;;;;5053151;28;20295;-60
2023/09/10 05:31:05;;;;;;;;;;;19.60;51.30;;;;;;5053372;28;20285;-60
2023/09/10 05:33:33;;;;;;;;;;;19.50;51.20;;;;;;5053057;28;19992;-60
2023/09/10 05:36:00;;;;;;;;;;;19.40;54.20;;;;;;5052939;28;19979;-60
2023/09/10 05:38:27;;;;;;;;;;;19.40;52.20;;;;;;5052670;28;19925;-61
2023/09/10 05:40:54;;;;;;;;;;;19.20;52.70;;;;;;5052745;28;20335;-60
2023/09/10 05:43:21;;;;;;;;;;;19.20;53.10;;;;;;5053005;28;19933;-61
2023/09/10 05:45:50;;;;;;;;;;;19.10;54.40;;;;;;5052814;28;19975;-60
2023/09/10 05:48:18;;;;;;;;;;;19.10;52.60;;;;;;5052052;28;19928;-61
2023/09/10 05:50:44;;;;;;;;;;;19.00;51.90;;;;;;5068204;28;19994;-60
2023/09/10 05:53:11;;;;;;;;;;;18.90;53.30;;;;;;5052884;28;20289;-61
2023/09/10 05:55:42;;;;;;;;;;;18.90;53.80;;;;;;5052905;28;20028;-60
2023/09/10 05:58:09;;;;;;;;;;;18.90;52.80;;;;;;5067870;28;19925;-60
2023/09/10 06:00:36;;;;;;;;;;;18.80;52.50;;;;;;5053171;28;19979;-60
2023/09/10 06:03:04;;;;;;;;;;;18.80;53.30;;;;;;5052749;28;20020;-61
2023/09/10 06:05:31;;;;;;;;;;;18.80;52.60;;;;;;5055007;28;19925;-60
2023/09/10 06:07:58;;;;;;;;;;;18.70;52.80;;;;;;5055493;28;19975;-61
2023/09/10 06:10:25;;;;;;;;;;;18.70;53.50;;;;;;5055505;28;19925;-60
2023/09/10 06:12:52;;;;;;;;;;;18.70;52.60;;;;;;5056196;28;19935;-60
2023/09/10 06:15:19;;;;;;;;;;;18.70;52.70;;;;;;5056201;28;19971;-61
2023/09/10 06:17:46;;;;;;;;;;;18.70;53.90;;;;;;5056189;28;19924;-60
2023/09/10 06:20:13;;;;;;;;;;;18.70;53.50;;;;;;5055888;28;19932;-61
2023/09/10 06:22:40;;;;;;;;;;;18.70;53.50;;;;;;5056081;28;19929;-60
2023/09/10 06:25:07;;;;;;;;;;;18.60;54.10;;;;;;5056057;28;19978;-60
2023/09/10 06:27:34;;;;;;;;;;;18.60;54.90;;;;;;5055948;28;19975;-60
2023/09/10 06:30:01;;;;;;;;;;;18.60;52.70;;;;;;5056065;28;19925;-60
2023/09/10 06:32:28;;;;;;;;;;;18.70;52.70;;;;;;5055022;28;19925;-61
2023/09/10 06:34:55;;;;;;;;;;;18.60;53.60;;;;;;5055729;28;20019;-60
2023/09/10 06:37:22;;;;;;;;;;;18.60;53.80;;;;;;5056047;28;19925;-60
2023/09/10 06:39:49;;;;;;;;;;;18.60;52.60;;;;;;5054263;28;19925;-60
2023/09/10 06:42:16;;;;;;;;;;;18.60;53.30;;;;;;5070007;28;19978;-62
2023/09/10 06:44:43;;;;;;;;;;;18.70;54.00;;;;;;5055640;28;19924;-60
2023/09/10 06:47:11;;;;;;;;;;;18.70;53.40;;;;;;5055922;28;20381;-60
2023/09/10 06:49:38;;;;;;;;;;;18.70;53.00;;;;;;5055601;28;19925;-60
2023/09/10 06:52:09;;;;;;;;;;;18.70;54.10;;;;;;5055794;28;20304;-60
2023/09/10 06:54:37;;;;;;;;;;;18.70;53.70;;;;;;5054043;28;20020;-60
2023/09/10 06:57:04;;;;;;;;;;;18.70;55.20;;;;;;5055689;28;19964;-60
2023/09/10 06:59:31;;;;;;;;;;;18.60;53.80;;;;;;5055064;28;20012;-60
2023/09/10 07:01:58;;;;;;;;;;;18.60;54.80;;;;;;5055291;28;19928;-60
2023/09/10 07:04:25;;;;;;;;;;;18.60;55.00;;;;;;5055371;28;19935;-60
2023/09/10 07:06:52;;;;;;;;;;;18.60;54.50;;;;;;5055241;28;20395;-60
2023/09/10 07:09:23;;;;;;;;;;;18.60;55.10;;;;;;5055671;28;19998;-60
2023/09/10 07:11:51;;;;;;;;;;;18.60;54.20;;;;;;5055131;28;20370;-60
2023/09/10 07:14:18;;;;;;;;;;;18.60;54.10;;;;;;5055393;28;19975;-60
2023/09/10 07:16:46;;;;;;;;;;;18.60;55.60;;;;;;5053767;28;19925;-60
2023/09/10 07:19:13;;;;;;;;;;;18.50;55.20;;;;;;5053613;28;19931;-60
2023/09/10 07:21:40;;;;;;;;;;;18.50;53.80;;;;;;5054939;28;19924;-60
2023/09/10 07:24:09;;;;;;;;;;;18.60;53.80;;;;;;5055135;28;20257;-60
2023/09/10 07:26:36;;;;;;;;;;;18.60;55.30;;;;;;5054806;28;19974;-61
2023/09/10 07:29:04;;;;;;;;;;;18.50;55.30;;;;;;5054975;28;19974;-60
2023/09/10 07:31:32;;;;;;;;;;;18.50;55.40;;;;;;5055017;28;19972;-61
2023/09/10 07:34:00;;;;;;;;;;;18.50;56.20;;;;;;5054535;28;20011;-60
2023/09/10 07:36:27;;;;;;;;;;;18.50;55.90;;;;;;5054629;28;19976;-61
2023/09/10 07:38:54;;;;;;;;;;;18.50;55.30;;;;;;5054324;28;19925;-60
2023/09/10 07:41:22;;;;;;;;;;;18.40;55.20;;;;;;5054897;28;19928;-60
2023/09/10 07:43:49;;;;;;;;;;;18.40;55.70;;;;;;5054449;28;19976;-60
2023/09/10 07:46:16;;;;;;;;;;;18.40;56.80;;;;;;5054607;28;19975;-60
2023/09/10 07:48:44;;;;;;;;;;;18.40;56.70;;;;;;5054745;28;20024;-60
2023/09/10 07:51:11;;;;;;;;;;;18.40;58.40;;;;;;5054814;28;19928;-60
2023/09/10 07:53:37;;;;;;;;;;;18.40;58.50;;;;;;5054576;28;19929;-61
2023/09/10 07:56:05;;;;;;;;;;;18.40;58.80;;;;;;5054416;28;19979;-60
2023/09/10 07:58:32;;;;;;;;;;;18.40;58.40;;;;;;5054346;28;19939;-61
2023/09/10 08:00:59;;;;;;;;;;;18.40;58.00;;;;;;5054161;28;19952;-61
2023/09/10 08:03:26;;;;;;;;;;;18.40;57.70;;;;;;5069111;28;19925;-61
2023/09/10 08:05:53;;;;;;;;;;;18.40;58.40;;;;;;5054387;28;19998;-60
2023/09/10 08:08:20;;;;;;;;;;;18.40;58.20;;;;;;5054363;28;19925;-60
2023/09/10 08:10:47;;;;;;;;;;;18.40;58.60;;;;;;5054157;28;19971;-61
2023/09/10 08:13:14;;;;;;;;;;;18.40;57.90;;;;;;5054549;28;19925;-60
2023/09/10 08:15:41;;;;;;;;;;;18.50;57.70;;;;;;5053535;28;19978;-61
2023/09/10 08:18:11;;;;;;;;;;;18.50;58.30;;;;;;5054011;28;20443;-61
2023/09/10 08:20:42;;;;;;;;;;;18.60;59.00;;;;;;5053778;28;20008;-61
2023/09/10 08:23:09;;;;;;;;;;;18.50;58.80;;;;;;5053110;28;20377;-61
2023/09/10 08:25:36;;;;;;;;;;;18.60;59.00;;;;;;5054070;28;19925;-61
2023/09/10 08:28:03;;;;;;;;;;;18.60;59.50;;;;;;5053601;28;19954;-60
2023/09/10 08:30:30;;;;;;;;;;;18.60;57.80;;;;;;5053490;28;19925;-60
2023/09/10 08:32:58;;;;;;;;;;;18.70;58.70;;;;;;5053686;28;20463;-60
2023/09/10 08:35:41;;;;;;;;;;;18.70;58.90;;;;;;5053797;28;19960;-61
2023/09/10 08:38:08;;;;;;;;;;;18.70;57.80;;;;;;5053903;28;20392;-61
2023/09/10 08:40:38;;;;;;;;;;;18.70;58.50;;;;;;5053155;28;20396;-63
2023/09/10 08:43:08;;;;;;;;;;;18.70;58.90;;;;;;5053260;28;20044;-61
2023/09/10 08:45:35;;;;;;;;;;;18.80;58.50;;;;;;5053689;28;19925;-60
2023/09/10 08:48:04;;;;;;;;;;;18.70;58.10;;;;;;5053563;28;20031;-61
2023/09/10 08:50:32;;;;;;;;;;;18.80;58.50;;;;;;5053246;28;20051;-60
2023/09/10 08:52:59;;;;;;;;;;;18.80;59.00;;;;;;5053749;28;19925;-60
2023/09/10 08:55:26;;;;;;;;;;;18.80;58.70;;;;;;5053487;28;19925;-60
2023/09/10 08:57:54;;;;;;;;;;;18.80;59.20;;;;;;5051627;28;19939;-61
2023/09/10 09:00:22;;;;;;;;;;;18.80;57.90;;;;;;5050994;28;20014;-60
2023/09/10 09:02:49;;;;;;;;;;;18.80;58.90;;;;;;5052342;28;20362;-61
2023/09/10 09:05:16;;;;;;;;;;;18.90;58.90;;;;;;5052849;28;19925;-60
2023/09/10 09:07:48;;;;;;;;;;;18.90;58.90;;;;;;5053483;28;20035;-61
2023/09/10 09:10:18;;;;;;;;;;;18.80;59.20;;;;;;5053396;28;20266;-61
2023/09/10 09:12:46;;;;;;;;;;;18.90;58.90;;;;;;5053607;28;20012;-60
2023/09/10 09:15:12;;;;;;;;;;;18.90;58.90;;;;;;5053132;28;19968;-61
2023/09/10 09:17:42;;;;;;;;;;;18.90;59.40;;;;;;5053185;28;19925;-61
2023/09/10 09:20:10;;;;;;;;;;;18.90;59.30;;;;;;5051396;28;20019;-61
2023/09/10 09:22:40;;;;;;;;;;;18.90;59.60;;;;;;5052604;28;19983;-61
2023/09/10 09:25:08;;;;;;;;;;;18.90;60.00;;;;;;5052668;28;19925;-61
2023/09/10 09:27:36;;;;;;;;;;;18.90;59.80;;;;;;5053040;28;20377;-60
2023/09/10 09:30:06;;;;;;;;;;;19.00;59.80;;;;;;5052108;28;19972;-60
2023/09/10 09:32:35;;;;;;;;;;;19.00;59.60;;;;;;5051962;28;20019;-61
2023/09/10 09:35:03;;;;;;;;;;;19.00;59.70;;;;;;5051982;28;20354;-61
2023/09/10 09:37:32;;;;;;;;;;;19.00;60.10;;;;;;5053383;28;19924;-61
2023/09/10 09:39:59;;;;;;;;;;;19.00;60.00;;;;;;5053879;28;20451;-61
2023/09/10 09:42:26;;;;;;;;;;;19.00;60.00;;;;;;5057064;28;20028;-61
2023/09/10 09:44:54;;;;;;;;;;;19.10;60.00;;;;;;5056483;28;19976;-61
2023/09/10 09:47:21;;;;;;;;;;;19.10;60.00;;;;;;5056792;28;19956;-61
2023/09/10 09:49:49;;;;;;;;;;;19.10;59.40;;;;;;5057037;28;19924;-61
2023/09/10 09:52:17;;;;;;;;;;;19.20;59.40;;;;;;5056796;28;20349;-61
2023/09/10 09:54:47;;;;;;;;;;;19.20;59.00;;;;;;5056730;28;20343;-61
2023/09/10 09:57:16;;;;;;;;;;;19.20;59.10;;;;;;5057003;28;20015;-61
2023/09/10 09:59:43;;;;;;;;;;;19.20;59.70;;;;;;5056389;28;19929;-61
2023/09/10 10:02:12;;;;;;;;;;;19.20;59.50;;;;;;5056255;28;20019;-61
2023/09/10 10:04:40;;;;;;;;;;;19.30;59.10;;;;;;5055900;28;19982;-61
2023/09/10 10:07:08;;;;;;;;;;;19.30;58.70;;;;;;5056382;28;19956;-60
2023/09/10 10:09:50;;;;;;;;;;;19.30;58.70;;;;;;5056687;28;20337;-62
2023/09/10 10:12:18;;;;;;;;;;;19.30;58.40;;;;;;5056473;28;19929;-61
2023/09/10 10:14:45;;;;;;;;;;;19.30;58.80;;;;;;5056189;28;20019;-61
2023/09/10 10:17:12;;;;;;;;;;;19.30;58.50;;;;;;5056502;28;20004;-61
2023/09/10 10:19:40;;;;;;;;;;;19.30;58.30;;;;;;5055989;28;19975;-61
2023/09/10 10:22:08;;;;;;;;;;;19.30;58.10;;;;;;5055746;28;20288;-61
2023/09/10 10:24:35;;;;;;;;;;;19.30;58.00;;;;;;5055708;28;20388;-60
2023/09/10 10:27:02;;;;;;;;;;;19.30;58.10;;;;;;5056421;28;19967;-61
2023/09/10 10:29:29;;;;;;;;;;;19.20;58.30;;;;;;5055034;28;20000;-61
2023/09/10 10:32:12;;;;;;;;;;;19.30;59.00;;;;;;5056462;28;19924;-61
2023/09/10 10:34:41;;;;;;;;;;;19.30;58.60;;;;;;5055755;28;20016;-60
2023/09/10 10:37:15;;;;;;;;;;;19.30;58.80;;;;;;5055822;28;19983;-61
2023/09/10 10:40:05;;;;;;;;;;;19.30;58.70;;;;;;5055511;28;19931;-61
2023/09/10 10:42:36;;;;;;;;;;;19.30;58.40;;;;;;5067600;28;19924;-61
2023/09/10 10:45:05;;;;;;;;;;;19.30;58.60;;;;;;5055417;28;20345;-61
2023/09/10 10:47:37;;;;;;;;;;;19.30;58.70;;;;;;5055585;28;19924;-61
2023/09/10 10:50:07;;;;;;;;;;;19.30;58.60;;;;;;5055027;28;19970;-61
2023/09/10 10:52:37;;;;;;;;;;;19.30;58.30;;;;;;5070864;28;20400;-61
2023/09/10 10:55:05;;;;;;;;;;;19.30;58.30;;;;;;5055769;28;19979;-61
2023/09/10 10:57:32;;;;;;;;;;;19.30;57.80;;;;;;5055487;28;19925;-61
2023/09/10 11:00:00;;;;;;;;;;;19.30;58.10;;;;;;5055335;28;19925;-61
2023/09/10 11:02:27;;;;;;;;;;;19.30;58.20;;;;;;5055461;28;19970;-61
2023/09/10 11:05:05;;;;;;;;;;;19.30;58.10;;;;;;5055223;28;19960;-61
2023/09/10 11:07:32;;;;;;;;;;;19.30;57.90;;;;;;5055184;28;19975;-61
2023/09/10 11:10:19;;;;;;;;;;;19.30;58.10;;;;;;5055188;28;20004;-61
2023/09/10 11:13:06;;;;;;;;;;;19.30;58.10;;;;;;5054420;28;19925;-60
2023/09/10 11:15:33;;;;;;;;;;;19.30;58.00;;;;;;5055221;28;20043;-61
2023/09/10 11:18:20;;;;;;;;;;;19.30;58.40;;;;;;5055318;28;20294;-60
2023/09/10 11:20:48;;;;;;;;;;;19.30;58.10;;;;;;5054860;28;20300;-61
2023/09/10 11:23:15;;;;;;;;;;;19.30;58.50;;;;;;5055341;28;20297;-61
2023/09/10 11:25:45;;;;;;;;;;;19.30;58.70;;;;;;5054539;28;20342;-61
2023/09/10 11:28:31;;;;;;;;;;;19.40;58.50;;;;;;5055102;28;20387;-61
2023/09/10 11:30:58;;;;;;;;;;;19.40;58.70;;;;;;5054766;28;19924;-60
2023/09/10 11:33:30;;;;;;;;;;;19.40;58.70;;;;;;5054569;28;19931;-61
2023/09/10 11:35:58;;;;;;;;;;;19.40;58.70;;;;;;5054575;28;19925;-61
2023/09/10 11:38:27;;;;;;;;;;;19.40;58.70;;;;;;5054749;28;19924;-61
2023/09/10 11:40:55;;;;;;;;;;;19.50;58.70;;;;;;5054461;28;20011;-61
2023/09/10 11:43:22;;;;;;;;;;;19.50;58.70;;;;;;5054843;28;19931;-61
2023/09/10 11:45:49;;;;;;;;;;;19.60;58.80;;;;;;5054361;28;19983;-61
2023/09/10 11:48:16;;;;;;;;;;;19.60;58.90;;;;;;5054508;28;19972;-61
2023/09/10 11:50:44;;;;;;;;;;;19.60;58.60;;;;;;5054567;28;19929;-61
2023/09/10 11:53:11;;;;;;;;;;;19.70;59.00;;;;;;5054178;28;19979;-61
2023/09/10 11:55:41;;;;;;;;;;;19.70;58.60;;;;;;5053968;28;19924;-61
2023/09/10 11:58:08;;;;;;;;;;;19.70;58.60;;;;;;5054326;28;19925;-62
2023/09/10 12:00:35;;;;;;;;;;;19.80;58.60;;;;;;5054106;28;20336;-61
2023/09/10 12:03:03;;;;;;;;;;;19.80;58.60;;;;;;5053837;28;19971;-61
2023/09/10 12:05:30;;;;;;;;;;;19.80;58.10;;;;;;5069707;28;19924;-61
2023/09/10 12:08:01;;;;;;;;;;;19.90;58.70;;;;;;5054400;28;19925;-61
2023/09/10 12:10:29;;;;;;;;;;;19.90;58.90;;;;;;5054125;28;19925;-61
2023/09/10 12:13:03;;;;;;;;;;;19.90;58.50;;;;;;5054414;28;19928;-61
2023/09/10 12:15:31;;;;;;;;;;;20.00;58.80;;;;;;5053814;28;19931;-61
2023/09/10 12:18:01;;;;;;;;;;;19.90;58.60;;;;;;5053984;28;19951;-61
2023/09/10 12:20:28;;;;;;;;;;;20.00;58.70;;;;;;5053544;28;19924;-61
2023/09/10 12:22:55;;;;;;;;;;;20.10;58.50;;;;;;5054073;28;19925;-61
2023/09/10 12:25:22;;;;;;;;;;;20.10;58.60;;;;;;5053452;28;20387;-61
2023/09/10 12:27:49;;;;;;;;;;;20.10;58.50;;;;;;5053631;28;19925;-61
2023/09/10 12:30:16;;;;;;;;;;;20.10;58.30;;;;;;5054083;28;20315;-61
2023/09/10 12:32:43;;;;;;;;;;;20.20;58.40;;;;;;5053320;28;19935;-61
2023/09/10 12:35:11;;;;;;;;;;;20.20;58.30;;;;;;5053523;28;19931;-61
2023/09/10 12:37:52;;;;;;;;;;;20.20;58.10;;;;;;5062569;28;19925;-61
2023/09/10 12:40:19;;;;;;;;;;;20.20;58.40;;;;;;5053866;28;19932;-61
2023/09/10 12:42:47;;;;;;;;;;;20.20;58.30;;;;;;5052963;28;20320;-61
2023/09/10 12:45:14;;;;;;;;;;;20.30;58.00;;;;;;5053164;28;20373;-61
2023/09/10 12:47:42;;;;;;;;;;;20.30;58.20;;;;;;5053860;28;20019;-61
2023/09/10 12:50:10;;;;;;;;;;;20.30;58.20;;;;;;5053650;28;19925;-61
2023/09/10 12:52:37;;;;;;;;;;;20.30;58.00;;;;;;5053177;28;19931;-61
2023/09/10 12:55:05;;;;;;;;;;;20.30;57.70;;;;;;5052993;28;19929;-61
2023/09/10 12:57:32;;;;;;;;;;;20.30;57.60;;;;;;5053371;28;19960;-61
2023/09/10 13:00:00;;;;;;;;;;;20.30;58.00;;;;;;5053138;28;19967;-61
2023/09/10 13:02:31;;;;;;;;;;;20.30;57.80;;;;;;5052947;28;19975;-61
2023/09/10 13:04:59;;;;;;;;;;;20.30;57.80;;;;;;5053276;28;19928;-60
2023/09/10 13:07:26;;;;;;;;;;;20.30;57.90;;;;;;5053241;28;19928;-61
2023/09/10 13:09:53;;;;;;;;;;;20.30;57.90;;;;;;5053359;28;19970;-61
2023/09/10 13:12:21;;;;;;;;;;;20.30;57.90;;;;;;5052997;28;19937;-61
2023/09/10 13:14:48;;;;;;;;;;;20.30;57.80;;;;;;5056550;28;19924;-61
2023/09/10 13:17:17;;;;;;;;;;;20.30;57.80;;;;;;5057485;28;19931;-61
2023/09/10 13:19:45;;;;;;;;;;;20.30;57.30;;;;;;5057199;28;19971;-61
2023/09/10 13:22:12;;;;;;;;;;;20.30;57.40;;;;;;5056660;28;19929;-61
2023/09/10 13:24:39;;;;;;;;;;;20.40;57.40;;;;;;5057339;28;20111;-60
2023/09/10 13:27:06;;;;;;;;;;;20.30;57.40;;;;;;5057161;28;19964;-60
2023/09/10 13:29:33;;;;;;;;;;;20.30;57.40;;;;;;5057060;28;19964;-60
2023/09/10 13:32:00;;;;;;;;;;;20.30;57.40;;;;;;5056720;28;19972;-60
2023/09/10 13:34:28;;;;;;;;;;;20.30;57.40;;;;;;5056597;28;19924;-60
2023/09/10 13:36:55;;;;;;;;;;;20.30;57.60;;;;;;5056944;28;20340;-60
2023/09/10 13:39:22;;;;;;;;;;;20.30;57.50;;;;;;5055729;28;20427;-60
2023/09/10 13:41:48;;;;;;;;;;;20.30;57.50;;;;;;5056278;28;19933;-60
2023/09/10 13:44:15;;;;;;;;;;;20.30;57.40;;;;;;5056839;28;19931;-60
2023/09/10 13:46:42;;;;;;;;;;;20.30;57.50;;;;;;5056798;28;19976;-60
2023/09/10 13:49:13;;;;;;;;;;;20.40;57.70;;;;;;5056197;28;20012;-60
2023/09/10 13:51:40;;;;;;;;;;;20.30;57.40;;;;;;5056201;28;19970;-60
2023/09/10 13:54:07;;;;;;;;;;;20.30;57.40;;;;;;5056404;28;19972;-60
2023/09/10 13:56:34;;;;;;;;;;;20.30;57.30;;;;;;5056482;28;19972;-61
2023/09/10 13:59:01;;;;;;;;;;;20.30;57.50;;;;;;5056574;28;20440;-60
2023/09/10 14:01:30;;;;;;;;;;;20.30;57.40;;;;;;5056141;28;19924;-60
2023/09/10 14:03:56;;;;;;;;;;;20.30;57.20;;;;;;5055935;28;20396;-60
2023/09/10 14:06:23;;;;;;;;;;;20.40;61.40;;;;;;5056043;28;20091;-60
2023/09/10 14:08:50;;;;;;;;;;;20.60;68.80;;;;;;5056881;28;20007;-60
2023/09/10 14:11:18;;;;;;;;;;;20.80;70.90;;;;;;5055837;28;19928;-60
2023/09/10 14:13:45;;;;;;;;;;;21.00;71.70;;;;;;5056148;28;19929;-60
2023/09/10 14:16:12;;;;;;;;;;;21.20;72.30;;;;;;5055340;28;19960;-60
2023/09/10 14:18:40;;;;;;;;;;;21.50;72.40;;;;;;5056408;28;20297;-60
2023/09/10 14:21:09;;;;;;;;;;;21.70;72.10;;;;;;5055443;28;19924;-60